Wimborne, United Kingdom
Current Conditions -  °F | °C
As of 9:50 PM on Friday 24 Oct 2014 (Local Time) from EGHH Reporting Station
Light Fog Light Fog  
Wind Chill: 48°   Ceiling: Unl
Heat Index: 48°   Visibility: 4mi
Dew Point: 48°   Wind: 1mph
Humidity: 100%   Direction: 270°W
Pressure: 30"   Gusts: NA
Location:  50.8°N, 1.98°W
Report Text: EGHH 242050Z 27001KT 7000 MIFG NSC 09/09 Q1016
Loading
Personal Weather Stations






























Interactive Weather Map
Tropical Storm Tracking
New forecast layout! Learn more

10-Day Weather Forecast

Advertisements
Track Severe Weather on mobile